Observations de surface / France / LFRH

Québec | Canada | États-Unis | France | UK | Europe | Ailleurs

Affichage: Infos & localisation pour LFRH | Aide pour décoder les METARs

LFRH LORIENT/LANN BIHOUE -- FR
Raw surface observations for station LFRH
LFRH 211700Z AUTO 08005KT 6000 NSC 02/M02 Q1023 NOSIG=
LFRH 211630Z AUTO 04005KT 6000 NSC 03/M02 Q1023 NOSIG=
LFRH 211600Z AUTO 05003KT 7000 NSC 04/M02 Q1023 NOSIG=
LFRH 211530Z AUTO 07005KT 8000 NSC 05/M02 Q1023 NOSIG=
LFRH 211500Z AUTO 09006KT CAVOK 05/M03 Q1023 NOSIG=
LFRH 211430Z AUTO 09004KT 060V150 9000 NSC 07/M03 Q1024 NOSIG=
LFRH 211400Z AUTO 06004KT 030V110 CAVOK 06/M04 Q1024 NOSIG=
LFRH 211330Z AUTO 08004KT CAVOK 06/M04 Q1024 NOSIG=
LFRH 211300Z AUTO 08004KT 040V110 8000 FEW047 05/M03 Q1024 NOSIG=
LFRH 211230Z AUTO 06004KT 030V100 7000 FEW048 04/M03 Q1025 NOSIG=
LFRH 211200Z AUTO 07005KT 7000 FEW008 SCT220 03/M02 Q1025 NOSIG=
LFRH 211130Z AUTO 09006KT 5000 BR FEW046 SCT210 03/M02 Q1026 NOSIG=
LFRH 211100Z AUTO 08006KT 4900 BR NSC 01/M02 Q1026 BECMG 9999 NSW=
LFRH 211030Z AUTO 07007KT 4500 BR NSC M01/M03 Q1026 BECMG 9999 NSW=
LFRH 211000Z AUTO 08006KT 3800 BR NSC M02/M04 Q1026 BECMG 9999 NSW=
LFRH 210930Z AUTO 07006KT 3500 BR NSC M03/M05 Q1026 BECMG 9999 NSW=
LFRH 210900Z AUTO 07007KT 040V110 3400 BR NSC M04/M05 Q1026 BECMG 9999 NSW=
LFRH 210830Z AUTO 08007KT 3200 BR NSC M04/M05 Q1026 BECMG 9999 NSW=
LFRH 210800Z AUTO 08007KT 3500 BR NSC M04/M06 Q1026 BECMG 9999 NSW=
LFRH 210730Z AUTO 08007KT 4500 BR NSC M05/M06 Q1026 BECMG 9999 NSW=
LFRH 210700Z AUTO 08005KT 4400 BR NSC M06/M07 Q1025 BECMG 9999 NSW=
LFRH 210630Z AUTO 07005KT 4400 BR NSC M06/M07 Q1025 BECMG 9999 NSW=
LFRH 210600Z AUTO 06004KT 4600 BR NSC M05/M06 Q1025 NOSIG=
LFRH 210530Z AUTO 05005KT 4600 BR NSC M05/M06 Q1025 NOSIG=
LFRH 210500Z AUTO 04006KT 4500 BR NSC M05/M06 Q1026 BECMG 5000 BR=
LFRH 210430Z AUTO 03008KT 4400 BR NSC M05/M06 Q1026 BECMG 5000 BR=
LFRH 210400Z AUTO 02005KT 4500 BR NSC M05/M06 Q1026 TEMPO 2000=
LFRH 210330Z AUTO 02006KT 4400 BR NSC M05/M06 Q1027 TEMPO 2000=
LFRH 210300Z AUTO 01003KT 4500 BR NSC M05/M06 Q1027 TEMPO 2000=
LFRH 210230Z AUTO 02005KT 4400 BR NSC M05/M06 Q1027 TEMPO 2000=
LFRH 210200Z AUTO 02004KT 4500 BR NSC M05/M06 Q1027 TEMPO 2000=
LFRH 210130Z AUTO 02005KT 4400 BR NSC M05/M06 Q1027 TEMPO 2000=
LFRH 210100Z AUTO 05003KT 4300 BR NSC M05/M06 Q1027 BECMG 5000 BR=
LFRH 210030Z AUTO 06003KT 4600 BR NSC M05/M06 Q1027 BECMG 5000 BR=
LFRH 210000Z AUTO 07005KT 4600 BR NSC M04/M06 Q1027 BECMG 5000 BR=
LFRH 202330Z AUTO 06004KT 5000 BR NSC M04/M06 Q1027 NOSIG=
LFRH 202300Z AUTO 06005KT 5000 BR NSC M04/M05 Q1027 NOSIG=
LFRH 202230Z AUTO 07004KT 5000 BR NSC M04/M05 Q1027 NOSIG=
LFRH 202200Z AUTO 06005KT 5000 BR NSC M03/M05 Q1027 NOSIG=
LFRH 202130Z AUTO 06005KT 5000 BR NSC M03/M05 Q1027 NOSIG=
LFRH 202100Z AUTO 07003KT 5000 BR NSC M03/M05 Q1027 NOSIG=
LFRH 202030Z AUTO 07004KT 5000 BR NSC M03/M05 Q1027 NOSIG=
LFRH 202000Z AUTO 06004KT 5000 BR NSC M03/M05 Q1027 NOSIG=
LFRH 201930Z AUTO 05004KT 6000 NSC M02/M05 Q1027 BECMG 3000 BR=
LFRH 201900Z AUTO 06004KT 6000 NSC M02/M05 Q1027 NOSIG=
LFRH 201830Z AUTO 07005KT 6000 NSC M02/M05 Q1027 NOSIG=
LFRH 201800Z AUTO 08004KT 6000 NSC M02/M05 Q1027 NOSIG=
LFRH 201730Z AUTO 07003KT 7000 NSC M01/M05 Q1027 NOSIG=
LFRH 201700Z AUTO 07004KT 7000 NSC M01/M05 Q1027 NOSIG=